Time;durP1;ratioP1;P1;durP2;ratioP2;P2;SDS_P1;SDS_P2;PMS_P1;PMS_P2;Temp;Humidity;BMP_temperature;BMP_pressure;BME280_temperature;BME280_humidity;BME280_pressure;Samples;Min_cycle;Max_cycle;Signal;HPM_P1;HPM_P2
2020/12/06 00:01:49;;;;;;;7.35;6.22;;;6.90;94.00;;;;;;4932872;29;20253;-24
2020/12/06 00:04:20;;;;;;;9.68;6.32;;;6.90;94.20;;;;;;4931909;29;20206;-24
2020/12/06 00:06:50;;;;;;;6.05;5.55;;;6.80;94.00;;;;;;4932349;29;20225;-24
2020/12/06 00:09:22;;;;;;;7.93;6.82;;;6.80;94.10;;;;;;4931906;29;20343;-26
2020/12/06 00:11:52;;;;;;;7.63;6.13;;;6.80;94.60;;;;;;4929575;29;20258;-24
2020/12/06 00:14:22;;;;;;;7.65;6.60;;;6.80;94.50;;;;;;4925392;29;20250;-24
2020/12/06 00:16:52;;;;;;;6.80;6.18;;;6.80;94.40;;;;;;4928839;29;20234;-24
2020/12/06 00:19:23;;;;;;;9.55;6.90;;;6.90;94.30;;;;;;4931498;29;20674;-25
2020/12/06 00:21:53;;;;;;;8.10;7.03;;;6.90;94.80;;;;;;4931583;29;20673;-24
2020/12/06 00:24:24;;;;;;;7.00;6.30;;;6.90;94.10;;;;;;4931398;29;20198;-23
2020/12/06 00:26:58;;;;;;;7.20;6.05;;;6.90;94.50;;;;;;4930343;29;20258;-26
2020/12/06 00:29:28;;;;;;;7.75;6.40;;;7.00;94.20;;;;;;4930868;29;20237;-23
2020/12/06 00:31:59;;;;;;;7.50;5.75;;;7.00;94.40;;;;;;4932030;29;20765;-25
2020/12/06 00:34:29;;;;;;;6.68;6.05;;;7.00;93.90;;;;;;4930906;29;20269;-24
2020/12/06 00:36:59;;;;;;;7.25;6.50;;;6.90;94.00;;;;;;4930917;29;20285;-24
2020/12/06 00:39:32;;;;;;;7.30;5.88;;;6.90;94.00;;;;;;4930229;29;20575;-23
2020/12/06 00:42:02;;;;;;;8.38;6.53;;;6.80;94.00;;;;;;4932176;29;20198;-24
2020/12/06 00:44:33;;;;;;;7.57;6.38;;;6.90;93.80;;;;;;4924142;29;20293;-22
2020/12/06 00:47:03;;;;;;;7.30;6.70;;;6.80;93.80;;;;;;4931759;29;20238;-23
2020/12/06 00:49:33;;;;;;;7.13;6.30;;;6.70;94.30;;;;;;4924567;29;20230;-23
2020/12/06 00:52:04;;;;;;;7.30;6.60;;;6.70;94.20;;;;;;4928047;29;20273;-23
2020/12/06 00:54:35;;;;;;;8.40;7.05;;;6.80;94.00;;;;;;4934609;29;20202;-23
2020/12/06 00:57:05;;;;;;;8.43;6.90;;;6.70;94.30;;;;;;4935245;29;20265;-23
2020/12/06 00:59:35;;;;;;;8.23;6.60;;;6.60;94.50;;;;;;4935335;29;20937;-25
2020/12/06 01:02:06;;;;;;;9.20;7.15;;;6.60;94.60;;;;;;4935780;29;20206;-23
2020/12/06 01:04:36;;;;;;;7.75;6.95;;;6.60;95.30;;;;;;4934626;29;20198;-23
2020/12/06 01:07:06;;;;;;;7.88;7.07;;;6.70;94.60;;;;;;4935339;29;20198;-23
2020/12/06 01:09:37;;;;;;;8.80;6.75;;;6.70;94.40;;;;;;4932303;29;20288;-23
2020/12/06 01:12:08;;;;;;;7.50;6.80;;;6.60;94.60;;;;;;4935430;29;20608;-23
2020/12/06 01:14:38;;;;;;;8.15;6.60;;;6.70;94.30;;;;;;4935024;29;20210;-24
2020/12/06 01:17:08;;;;;;;7.47;6.68;;;6.70;94.60;;;;;;4920056;29;20198;-34
2020/12/06 01:19:38;;;;;;;7.13;6.43;;;6.70;94.60;;;;;;4935810;29;20199;-24
2020/12/06 01:22:08;;;;;;;7.18;6.45;;;6.70;94.30;;;;;;4935333;29;20212;-23
2020/12/06 01:24:39;;;;;;;7.50;6.35;;;6.70;94.30;;;;;;4933432;29;20225;-23
2020/12/06 01:27:10;;;;;;;7.05;6.43;;;6.70;94.70;;;;;;4927012;29;20666;-24
2020/12/06 01:29:40;;;;;;;11.30;6.88;;;6.70;95.40;;;;;;4934426;29;20234;-24
2020/12/06 01:32:10;;;;;;;6.82;6.13;;;6.70;95.20;;;;;;4934648;29;20186;-24
2020/12/06 01:34:40;;;;;;;7.38;6.47;;;6.60;95.90;;;;;;4934829;29;20194;-23
2020/12/06 01:37:10;;;;;;;7.25;6.53;;;6.50;96.00;;;;;;4934595;29;20210;-24
2020/12/06 01:39:42;;;;;;;7.45;6.65;;;6.50;96.30;;;;;;4934330;29;20193;-24
2020/12/06 01:42:12;;;;;;;7.95;6.97;;;6.50;96.20;;;;;;4934757;29;20206;-23
2020/12/06 01:44:42;;;;;;;7.05;6.45;;;6.40;95.80;;;;;;4934583;29;20228;-23
2020/12/06 01:47:13;;;;;;;8.27;6.85;;;6.40;95.90;;;;;;4921688;29;20302;-24
2020/12/06 01:49:43;;;;;;;7.13;6.43;;;6.50;95.70;;;;;;4933768;29;20234;-23
2020/12/06 01:52:14;;;;;;;8.02;6.85;;;6.50;95.50;;;;;;4934658;29;20202;-24
2020/12/06 01:54:45;;;;;;;9.20;6.93;;;6.60;95.50;;;;;;4933478;29;20210;-23
2020/12/06 01:57:15;;;;;;;7.53;6.80;;;6.60;95.30;;;;;;4934298;29;20254;-23
2020/12/06 01:59:45;;;;;;;8.80;6.60;;;6.50;95.50;;;;;;4933945;29;20202;-23
2020/12/06 02:02:16;;;;;;;7.75;6.95;;;6.60;94.90;;;;;;4933953;29;20206;-23
2020/12/06 02:04:46;;;;;;;10.05;6.93;;;6.60;95.10;;;;;;4933743;29;20198;-22
2020/12/06 02:07:17;;;;;;;8.10;7.32;;;6.50;95.30;;;;;;4934422;29;20588;-23
2020/12/06 02:09:48;;;;;;;8.05;6.55;;;6.50;95.70;;;;;;4927722;29;20597;-23
2020/12/06 02:12:18;;;;;;;8.25;7.45;;;6.50;95.80;;;;;;4924734;29;20633;-23
2020/12/06 02:14:48;;;;;;;9.48;7.63;;;6.50;95.60;;;;;;4933991;29;20202;-22
2020/12/06 02:17:18;;;;;;;9.10;7.70;;;6.50;95.70;;;;;;4933232;29;20214;-22
2020/12/06 02:19:49;;;;;;;9.02;7.25;;;6.50;95.70;;;;;;4934237;29;20798;-23
2020/12/06 02:22:20;;;;;;;10.20;7.78;;;6.50;96.10;;;;;;4934550;29;20202;-23
2020/12/06 02:24:50;;;;;;;12.07;7.43;;;6.40;95.90;;;;;;4933949;29;20558;-22
2020/12/06 02:27:20;;;;;;;8.75;7.40;;;6.40;95.80;;;;;;4934483;29;20658;-23
2020/12/06 02:29:50;;;;;;;8.38;7.57;;;6.30;96.10;;;;;;4933771;29;20234;-23
2020/12/06 02:32:20;;;;;;;7.90;6.60;;;6.30;96.40;;;;;;4933997;29;20206;-23
2020/12/06 02:34:51;;;;;;;9.20;8.20;;;6.30;96.00;;;;;;4933583;29;20210;-22
2020/12/06 02:37:22;;;;;;;10.70;7.70;;;6.30;96.20;;;;;;4930984;29;20268;-23
2020/12/06 02:39:52;;;;;;;8.25;7.45;;;6.40;96.20;;;;;;4921369;29;20190;-23
2020/12/06 02:42:23;;;;;;;7.57;6.80;;;6.30;96.20;;;;;;4933829;29;20198;-24
2020/12/06 02:44:53;;;;;;;11.98;7.32;;;6.40;96.10;;;;;;4933203;29;20352;-23
2020/12/06 02:47:23;;;;;;;8.38;7.25;;;6.40;95.90;;;;;;4933635;29;20241;-23
2020/12/06 02:49:53;;;;;;;7.97;6.65;;;6.30;95.80;;;;;;4934318;29;20285;-23
2020/12/06 02:52:24;;;;;;;9.07;7.10;;;6.30;95.90;;;;;;4923913;29;20241;-24
2020/12/06 02:54:55;;;;;;;8.63;7.10;;;6.40;96.00;;;;;;4933222;29;21006;-23
2020/12/06 02:57:25;;;;;;;8.85;7.95;;;6.40;96.10;;;;;;4933479;29;20194;-24
2020/12/06 02:59:55;;;;;;;8.60;7.70;;;6.40;96.10;;;;;;4922701;29;20729;-24
2020/12/06 03:02:25;;;;;;;8.48;7.47;;;6.40;96.30;;;;;;4932238;29;21065;-24
2020/12/06 03:04:55;;;;;;;8.77;6.90;;;6.30;96.20;;;;;;4919281;29;20202;-23
2020/12/06 03:07:27;;;;;;;7.68;6.75;;;6.40;96.20;;;;;;4934104;29;20281;-23
2020/12/06 03:09:57;;;;;;;8.73;7.43;;;6.40;96.30;;;;;;4933184;29;20229;-23
2020/12/06 03:12:27;;;;;;;9.15;7.00;;;6.40;96.30;;;;;;4934350;29;20193;-23
2020/12/06 03:14:57;;;;;;;8.95;8.13;;;6.30;96.20;;;;;;4918352;29;20201;-23
2020/12/06 03:17:27;;;;;;;8.10;7.30;;;6.30;96.30;;;;;;4932329;29;20269;-23
2020/12/06 03:19:58;;;;;;;7.80;7.00;;;6.30;96.00;;;;;;4933363;29;20206;-23
2020/12/06 03:22:32;;;;;;;8.18;7.22;;;6.40;96.30;;;;;;4933435;29;20226;-23
2020/12/06 03:25:03;;;;;;;7.97;7.18;;;6.40;96.30;;;;;;4933327;29;20202;-24
2020/12/06 03:27:33;;;;;;;9.18;7.25;;;6.60;95.80;;;;;;4933112;29;20566;-24
2020/12/06 03:30:03;;;;;;;8.98;7.07;;;6.60;95.50;;;;;;4933072;29;20245;-24
2020/12/06 03:32:34;;;;;;;7.85;7.15;;;6.60;95.50;;;;;;4933060;29;20623;-24
2020/12/06 03:35:04;;;;;;;7.93;6.97;;;6.60;95.10;;;;;;4933038;29;20214;-25
2020/12/06 03:37:35;;;;;;;10.05;7.72;;;6.70;95.60;;;;;;4933744;29;20284;-25
2020/12/06 03:40:06;;;;;;;8.05;7.25;;;6.70;95.30;;;;;;4932681;29;20198;-24
2020/12/06 03:42:36;;;;;;;7.78;6.97;;;6.70;95.50;;;;;;4933106;29;20193;-23
2020/12/06 03:45:06;;;;;;;8.00;7.20;;;6.80;95.20;;;;;;4932371;29;20281;-23
2020/12/06 03:47:36;;;;;;;7.13;6.43;;;6.80;95.90;;;;;;4932635;29;20329;-24
2020/12/06 03:50:07;;;;;;;7.22;6.53;;;6.80;96.10;;;;;;4933223;29;20226;-23
2020/12/06 03:52:38;;;;;;;8.95;7.88;;;6.90;96.50;;;;;;4932746;29;20194;-25
2020/12/06 03:55:08;;;;;;;7.78;7.03;;;6.80;96.90;;;;;;4932304;29;20198;-24
2020/12/06 03:57:38;;;;;;;7.15;6.45;;;6.90;95.80;;;;;;4932973;29;20194;-24
2020/12/06 04:00:08;;;;;;;10.38;7.57;;;6.90;96.90;;;;;;4933050;29;20568;-25
2020/12/06 04:02:39;;;;;;;9.35;8.40;;;6.90;96.40;;;;;;4932714;29;20288;-24
2020/12/06 04:05:09;;;;;;;8.73;7.95;;;6.90;95.80;;;;;;4932698;29;20201;-25
2020/12/06 04:07:40;;;;;;;8.85;7.93;;;7.00;95.30;;;;;;4932959;29;20339;-24
2020/12/06 04:10:10;;;;;;;9.35;7.72;;;6.90;95.20;;;;;;4932326;29;20851;-24
2020/12/06 04:12:41;;;;;;;8.10;7.30;;;7.00;95.90;;;;;;4932377;29;20673;-24
2020/12/06 04:15:11;;;;;;;10.00;8.65;;;6.90;95.80;;;;;;4932060;29;20190;-24
2020/12/06 04:17:41;;;;;;;10.27;9.18;;;6.90;96.10;;;;;;4932260;29;20225;-25
2020/12/06 04:20:12;;;;;;;11.82;9.35;;;6.80;96.40;;;;;;4932592;29;20210;-24
2020/12/06 04:22:43;;;;;;;8.75;7.95;;;6.70;96.60;;;;;;4930246;29;20198;-24
2020/12/06 04:25:13;;;;;;;8.93;7.82;;;6.80;96.20;;;;;;4932068;29;20198;-24
2020/12/06 04:27:44;;;;;;;10.00;9.00;;;6.90;96.60;;;;;;4931583;29;20209;-25
2020/12/06 04:30:14;;;;;;;8.75;7.80;;;7.00;95.80;;;;;;4931985;29;20233;-24
2020/12/06 04:32:44;;;;;;;9.18;8.15;;;7.00;95.00;;;;;;4931654;29;20206;-23
2020/12/06 04:35:14;;;;;;;9.70;8.70;;;7.20;95.00;;;;;;4935065;29;20219;-24
2020/12/06 04:37:46;;;;;;;10.48;8.38;;;7.00;95.80;;;;;;4949466;28;20209;-24
2020/12/06 04:40:16;;;;;;;9.65;8.10;;;7.10;95.30;;;;;;4937845;28;20198;-25
2020/12/06 04:42:47;;;;;;;12.93;8.60;;;7.00;95.60;;;;;;4934214;28;20194;-23
2020/12/06 04:45:17;;;;;;;10.10;8.40;;;7.00;95.80;;;;;;4931909;29;20214;-22
2020/12/06 04:47:58;;;;;;;8.75;7.85;;;6.90;96.00;;;;;;4931809;28;20586;-23
2020/12/06 04:50:33;;;;;;;10.75;8.80;;;6.80;96.00;;;;;;4931140;29;20228;-22
2020/12/06 04:53:08;;;;;;;8.85;8.02;;;6.70;96.30;;;;;;4937095;29;20354;-23
2020/12/06 04:55:38;;;;;;;10.25;8.10;;;6.70;96.30;;;;;;4932456;29;20197;-24
2020/12/06 04:58:08;;;;;;;8.27;7.47;;;6.80;97.10;;;;;;4937972;29;20255;-23
2020/12/06 05:00:39;;;;;;;8.68;7.70;;;6.70;97.50;;;;;;4941574;29;20209;-23
2020/12/06 05:03:10;;;;;;;9.20;7.75;;;6.70;97.90;;;;;;4928203;29;20190;-24
2020/12/06 05:05:42;;;;;;;10.00;8.00;;;6.70;98.50;;;;;;4931842;29;20249;-24
2020/12/06 05:08:14;;;;;;;10.93;8.05;;;6.70;98.90;;;;;;4931880;29;20339;-25
2020/12/06 05:10:46;;;;;;;9.55;8.60;;;6.80;99.30;;;;;;4919177;29;20272;-24
2020/12/06 05:13:17;;;;;;;9.63;8.57;;;6.60;99.80;;;;;;4931580;29;20294;-24
2020/12/06 05:15:48;;;;;;;10.85;9.13;;;6.60;99.90;;;;;;4931231;29;20246;-24
2020/12/06 05:18:18;;;;;;;12.02;8.90;;;6.60;99.90;;;;;;4931661;29;20577;-24
2020/12/06 05:20:48;;;;;;;10.30;9.13;;;6.60;99.90;;;;;;4931791;29;20217;-24
2020/12/06 05:23:20;;;;;;;11.13;9.48;;;6.50;99.90;;;;;;4931712;29;20202;-25
2020/12/06 05:25:50;;;;;;;9.38;7.72;;;6.50;99.90;;;;;;4927947;29;20198;-24
2020/12/06 05:28:22;;;;;;;9.48;8.50;;;6.50;99.90;;;;;;4931523;29;20225;-25
2020/12/06 05:30:53;;;;;;;8.57;7.50;;;6.50;99.90;;;;;;4931011;29;20718;-24
2020/12/06 05:33:23;;;;;;;10.07;9.02;;;6.60;99.90;;;;;;4930994;29;20198;-24
2020/12/06 05:36:00;;;;;;;14.60;9.32;;;6.60;99.70;;;;;;4929587;29;20206;-24
2020/12/06 05:38:32;;;;;;;10.35;8.70;;;6.60;99.40;;;;;;4931198;29;20202;-24
2020/12/06 05:41:06;;;;;;;9.35;8.43;;;6.60;99.90;;;;;;4933567;29;20206;-24
2020/12/06 05:43:37;;;;;;;9.70;8.70;;;6.60;99.70;;;;;;4934881;29;20563;-24
2020/12/06 05:46:08;;;;;;;9.10;8.00;;;6.60;99.10;;;;;;4933692;29;20222;-24
2020/12/06 05:48:40;;;;;;;8.80;8.00;;;6.70;99.60;;;;;;4934686;29;20234;-24
2020/12/06 05:51:10;;;;;;;10.07;8.18;;;6.70;99.60;;;;;;4935374;29;20229;-24
2020/12/06 05:53:42;;;;;;;10.02;8.52;;;6.70;99.00;;;;;;4934798;29;20194;-24
2020/12/06 05:56:16;;;;;;;8.48;6.85;;;6.70;99.90;;;;;;4934786;29;20273;-24
2020/12/06 05:58:48;;;;;;;9.10;8.00;;;6.70;99.90;;;;;;4933907;29;20260;-24
2020/12/06 06:01:22;;;;;;;8.48;7.53;;;6.70;99.90;;;;;;4934320;29;20195;-24
2020/12/06 06:03:53;;;;;;;10.55;7.55;;;6.80;98.80;;;;;;4934100;29;20225;-24
2020/12/06 06:06:26;;;;;;;10.43;7.90;;;6.80;98.90;;;;;;4934715;29;20194;-24
2020/12/06 06:09:02;;;;;;;8.85;8.05;;;6.90;98.80;;;;;;4926786;29;20241;-24
2020/12/06 06:11:36;;;;;;;8.30;7.40;;;6.90;98.70;;;;;;4929262;29;20217;-24
2020/12/06 06:14:08;;;;;;;9.27;8.05;;;6.90;99.30;;;;;;4932113;29;20246;-24
2020/12/06 06:16:38;;;;;;;9.57;8.13;;;6.80;99.30;;;;;;4926533;29;20250;-24
2020/12/06 06:19:08;;;;;;;8.43;7.57;;;6.80;99.30;;;;;;4934448;29;20563;-24
2020/12/06 06:21:40;;;;;;;10.00;8.05;;;6.70;99.20;;;;;;4934505;29;20577;-24
2020/12/06 06:24:14;;;;;;;8.25;7.25;;;6.70;99.80;;;;;;4933894;29;20213;-24
2020/12/06 06:26:47;;;;;;;10.05;7.93;;;6.70;99.50;;;;;;4934659;29;20260;-24
2020/12/06 06:29:21;;;;;;;8.95;7.80;;;6.70;99.50;;;;;;4934369;29;20261;-24
2020/12/06 06:31:53;;;;;;;10.13;9.13;;;6.70;99.80;;;;;;4934829;29;20194;-24
2020/12/06 06:34:25;;;;;;;8.88;7.70;;;6.80;99.90;;;;;;4934220;29;20812;-24
2020/12/06 06:36:56;;;;;;;9.80;7.72;;;6.80;99.90;;;;;;4933781;29;20201;-24
2020/12/06 06:39:28;;;;;;;10.13;8.35;;;6.80;99.90;;;;;;4933676;29;20201;-24
2020/12/06 06:42:04;;;;;;;10.13;8.68;;;6.80;99.90;;;;;;4934590;29;20190;-24
2020/12/06 06:44:37;;;;;;;9.25;7.60;;;6.70;99.90;;;;;;4933430;29;20225;-25
2020/12/06 06:47:11;;;;;;;9.90;8.52;;;6.70;99.90;;;;;;4934043;29;20240;-24
2020/12/06 06:49:55;;;;;;;8.93;8.02;;;6.80;99.90;;;;;;4933905;29;20209;-25
2020/12/06 06:52:26;;;;;;;10.00;8.20;;;6.80;99.90;;;;;;4934216;29;20272;-24
2020/12/06 06:54:59;;;;;;;9.80;8.30;;;6.80;99.90;;;;;;4933575;29;20202;-24
2020/12/06 06:57:31;;;;;;;9.70;8.10;;;6.70;99.90;;;;;;4934200;29;20679;-24
2020/12/06 07:00:02;;;;;;;8.70;7.38;;;6.70;99.90;;;;;;4931796;29;20522;-24
2020/12/06 07:02:37;;;;;;;9.68;8.25;;;6.80;99.90;;;;;;4933204;29;20967;-25
2020/12/06 07:05:08;;;;;;;9.40;8.45;;;6.70;99.90;;;;;;4933246;29;20617;-24
2020/12/06 07:07:45;;;;;;;9.32;8.07;;;6.60;99.90;;;;;;4933638;29;20653;-24
2020/12/06 07:10:18;;;;;;;8.98;7.90;;;6.60;99.90;;;;;;4923555;29;20288;-24
2020/12/06 07:12:52;;;;;;;11.27;8.50;;;6.60;99.90;;;;;;4933113;29;20194;-24
2020/12/06 07:15:23;;;;;;;11.45;8.20;;;6.60;99.90;;;;;;4933194;29;20241;-24
2020/12/06 07:17:56;;;;;;;9.20;7.57;;;6.50;99.90;;;;;;4933281;29;20630;-24
2020/12/06 07:20:28;;;;;;;9.23;8.23;;;6.50;99.90;;;;;;4928081;29;20266;-24
2020/12/06 07:22:58;;;;;;;11.50;9.05;;;6.50;99.90;;;;;;4933659;29;20218;-24
2020/12/06 07:25:31;;;;;;;9.65;8.55;;;6.50;99.90;;;;;;4932875;29;20289;-24
2020/12/06 07:28:01;;;;;;;9.88;8.68;;;6.60;99.90;;;;;;4924370;29;20253;-24
2020/12/06 07:30:32;;;;;;;9.63;8.63;;;6.60;99.90;;;;;;4933042;29;20217;-24
2020/12/06 07:33:02;;;;;;;9.68;8.68;;;6.60;99.90;;;;;;4933321;29;20317;-24
2020/12/06 07:35:32;;;;;;;10.65;8.68;;;6.40;99.90;;;;;;4933515;29;20642;-24
2020/12/06 07:38:02;;;;;;;9.02;8.10;;;6.30;99.90;;;;;;4933561;29;20553;-25
2020/12/06 07:40:33;;;;;;;12.68;9.15;;;6.10;99.90;;;;;;4932639;29;20212;-26
2020/12/06 07:43:12;;;;;;;14.85;10.20;;;5.90;99.90;;;;;;4933036;29;20206;-25
2020/12/06 07:45:42;;;;;;;12.07;9.68;;;5.70;99.90;;;;;;4932516;29;20233;-24
2020/12/06 07:48:21;;;;;;;9.25;8.25;;;5.60;99.90;;;;;;4932808;29;20293;-25
2020/12/06 07:50:54;;;;;;;11.13;8.95;;;5.60;99.90;;;;;;4932366;29;20217;-25
2020/12/06 07:53:25;;;;;;;9.77;8.77;;;5.60;99.90;;;;;;4932829;29;20197;-26
2020/12/06 07:56:07;;;;;;;12.05;10.40;;;5.60;99.90;;;;;;4932340;29;20241;-26
2020/12/06 07:58:41;;;;;;;10.93;9.77;;;5.60;99.90;;;;;;4932753;29;20269;-25
2020/12/06 08:01:12;;;;;;;11.57;9.88;;;5.60;99.90;;;;;;4932365;29;20638;-26
2020/12/06 08:03:43;;;;;;;12.75;10.20;;;5.60;99.90;;;;;;4932130;29;20202;-26
2020/12/06 08:06:15;;;;;;;12.40;11.10;;;5.70;99.90;;;;;;4932599;29;20194;-25
2020/12/06 08:08:48;;;;;;;12.98;10.65;;;5.70;99.90;;;;;;4932087;29;20187;-24
2020/12/06 08:11:25;;;;;;;12.35;11.25;;;5.80;99.90;;;;;;4932442;29;20210;-25
2020/12/06 08:13:55;;;;;;;13.38;11.05;;;5.70;99.90;;;;;;4928637;29;20253;-24
2020/12/06 08:16:25;;;;;;;14.07;11.05;;;5.70;99.90;;;;;;4932310;29;20212;-25
2020/12/06 08:19:03;;;;;;;14.68;11.90;;;5.70;99.90;;;;;;4925193;29;20193;-25
2020/12/06 08:21:44;;;;;;;13.15;10.88;;;5.80;99.90;;;;;;4932299;29;20194;-24
2020/12/06 08:24:22;;;;;;;14.68;11.07;;;5.80;99.90;;;;;;4931785;29;20209;-25
2020/12/06 08:26:54;;;;;;;13.38;11.40;;;5.80;99.90;;;;;;4932553;29;20249;-25
2020/12/06 08:29:42;;;;;;;12.95;11.52;;;5.80;99.90;;;;;;4931921;29;20234;-25
2020/12/06 08:32:13;;;;;;;12.85;11.48;;;5.80;99.90;;;;;;4932774;29;20332;-24
2020/12/06 08:34:56;;;;;;;11.80;10.55;;;5.80;99.90;;;;;;4932333;29;20272;-25
2020/12/06 08:37:34;;;;;;;13.55;11.27;;;5.90;99.90;;;;;;4931445;29;20662;-25
2020/12/06 08:40:05;;;;;;;18.13;12.20;;;5.80;99.90;;;;;;4932202;29;20197;-24
2020/12/06 08:42:37;;;;;;;13.65;11.27;;;5.70;99.90;;;;;;4931915;29;20225;-24
2020/12/06 08:45:07;;;;;;;14.02;12.05;;;5.70;99.90;;;;;;4931714;29;20236;-24
2020/12/06 08:47:45;;;;;;;14.50;10.43;;;5.70;99.90;;;;;;4917458;29;20277;-25
2020/12/06 08:50:16;;;;;;;13.18;11.77;;;5.80;99.90;;;;;;4932582;29;20209;-24
2020/12/06 08:52:46;;;;;;;12.45;11.15;;;5.80;99.90;;;;;;4932024;29;20630;-24
2020/12/06 08:55:30;;;;;;;14.80;11.60;;;5.90;99.90;;;;;;4931802;29;20201;-24
2020/12/06 08:58:02;;;;;;;14.00;10.85;;;5.90;99.90;;;;;;4932134;29;20247;-24
2020/12/06 09:00:32;;;;;;;13.82;11.50;;;5.90;99.90;;;;;;4931659;29;20202;-25
2020/12/06 09:03:02;;;;;;;13.25;10.90;;;5.90;99.90;;;;;;4931942;29;20654;-25
2020/12/06 09:05:32;;;;;;;12.25;11.05;;;5.90;99.90;;;;;;4931980;29;20665;-25
2020/12/06 09:08:03;;;;;;;12.25;10.63;;;6.00;99.90;;;;;;4932812;29;20277;-25
2020/12/06 09:10:33;;;;;;;14.13;10.90;;;5.90;99.90;;;;;;4931408;29;20288;-26
2020/12/06 09:13:05;;;;;;;13.05;10.70;;;5.80;99.90;;;;;;4931780;29;20285;-25
2020/12/06 09:15:35;;;;;;;12.07;10.77;;;5.80;99.90;;;;;;4933932;29;20233;-25
2020/12/06 09:18:05;;;;;;;12.95;9.85;;;5.90;99.90;;;;;;4935383;29;20212;-24
2020/12/06 09:20:35;;;;;;;12.90;11.15;;;5.90;99.90;;;;;;4935455;29;20607;-25
2020/12/06 09:23:05;;;;;;;11.95;9.68;;;5.80;99.90;;;;;;4935927;29;20257;-25
2020/12/06 09:25:36;;;;;;;12.88;9.40;;;5.80;99.90;;;;;;4934949;29;20825;-24
2020/12/06 09:28:07;;;;;;;12.10;10.20;;;5.60;99.90;;;;;;4935967;29;20608;-25
2020/12/06 09:30:37;;;;;;;12.13;10.32;;;5.60;99.90;;;;;;4934429;29;20222;-25
2020/12/06 09:33:07;;;;;;;12.45;10.38;;;5.70;99.90;;;;;;4935336;29;20194;-25
2020/12/06 09:35:37;;;;;;;14.80;11.32;;;5.60;99.90;;;;;;4935147;29;20237;-25
2020/12/06 09:38:08;;;;;;;11.40;9.93;;;5.60;99.90;;;;;;4925640;29;20198;-24
2020/12/06 09:40:38;;;;;;;13.15;11.38;;;5.60;99.90;;;;;;4934842;29;20233;-25
2020/12/06 09:43:09;;;;;;;12.85;11.30;;;5.50;99.90;;;;;;4935595;29;20301;-25
2020/12/06 09:45:41;;;;;;;11.93;10.20;;;5.60;99.90;;;;;;4934646;29;20265;-25
2020/12/06 09:48:12;;;;;;;13.85;10.73;;;5.50;99.90;;;;;;4934987;29;20262;-25
2020/12/06 09:50:42;;;;;;;13.45;10.45;;;5.50;99.90;;;;;;4934664;29;20218;-25
2020/12/06 09:53:12;;;;;;;11.18;9.95;;;5.60;99.90;;;;;;4935770;29;20202;-25
2020/12/06 09:55:43;;;;;;;11.23;9.65;;;5.70;99.90;;;;;;4934628;29;20229;-25
2020/12/06 09:58:14;;;;;;;12.00;10.00;;;5.50;99.90;;;;;;4934707;29;20690;-25
2020/12/06 10:00:45;;;;;;;13.20;10.32;;;5.60;99.90;;;;;;4934533;29;20198;-25
2020/12/06 10:03:15;;;;;;;15.45;11.48;;;5.40;99.90;;;;;;4933968;29;20266;-24
2020/12/06 10:05:45;;;;;;;12.40;10.07;;;5.40;99.90;;;;;;4934208;29;20206;-25
2020/12/06 10:08:15;;;;;;;12.45;10.35;;;5.40;99.90;;;;;;4934264;29;20194;-25
2020/12/06 10:10:45;;;;;;;14.55;10.43;;;5.40;99.90;;;;;;4934042;29;20222;-24
2020/12/06 10:13:17;;;;;;;12.95;10.50;;;5.40;99.90;;;;;;4934873;29;20240;-24
2020/12/06 10:15:47;;;;;;;12.80;10.50;;;5.40;99.90;;;;;;4933809;29;20206;-24
2020/12/06 10:18:17;;;;;;;12.57;10.60;;;5.40;99.90;;;;;;4934467;29;20673;-24
2020/12/06 10:20:47;;;;;;;17.90;11.20;;;5.40;99.90;;;;;;4934484;29;20607;-25
2020/12/06 10:23:17;;;;;;;14.02;11.25;;;5.40;99.90;;;;;;4934475;29;20665;-24
2020/12/06 10:25:47;;;;;;;13.77;10.63;;;5.40;99.90;;;;;;4933582;29;20233;-25
2020/12/06 10:28:19;;;;;;;15.27;12.43;;;5.40;99.90;;;;;;4934494;29;20646;-24
2020/12/06 10:30:49;;;;;;;14.93;11.95;;;5.30;99.90;;;;;;4933755;29;20652;-25
2020/12/06 10:33:19;;;;;;;13.40;11.05;;;5.40;99.90;;;;;;4934279;29;20206;-24
2020/12/06 10:35:50;;;;;;;16.00;11.57;;;5.40;99.90;;;;;;4933064;29;20212;-24
2020/12/06 10:38:20;;;;;;;16.65;11.55;;;5.40;99.90;;;;;;4934554;29;20222;-24
2020/12/06 10:40:50;;;;;;;15.30;11.25;;;5.40;99.90;;;;;;4933220;29;20234;-25
2020/12/06 10:43:22;;;;;;;15.25;10.68;;;5.40;99.90;;;;;;4933757;29;20297;-25
2020/12/06 10:45:52;;;;;;;15.38;11.00;;;5.40;99.90;;;;;;4933253;29;20234;-24
2020/12/06 10:48:22;;;;;;;13.88;10.20;;;5.40;99.90;;;;;;4933676;29;20246;-25
2020/12/06 10:50:53;;;;;;;13.23;10.60;;;5.30;99.90;;;;;;4933501;29;20214;-24
2020/12/06 10:53:23;;;;;;;15.15;10.35;;;5.20;99.90;;;;;;4934281;29;20576;-24
2020/12/06 10:55:54;;;;;;;14.55;11.35;;;5.10;99.90;;;;;;4933472;29;20198;-24
2020/12/06 10:58:25;;;;;;;11.60;10.15;;;5.10;99.90;;;;;;4918815;29;20355;-24
2020/12/06 11:00:55;;;;;;;16.20;12.75;;;5.10;99.90;;;;;;4933208;29;20261;-24
2020/12/06 11:03:26;;;;;;;14.60;11.25;;;5.20;99.90;;;;;;4932307;29;20201;-24
2020/12/06 11:05:56;;;;;;;14.63;11.95;;;5.20;99.90;;;;;;4933684;29;20202;-24
2020/12/06 11:08:26;;;;;;;15.70;11.35;;;5.30;99.90;;;;;;4933587;29;20233;-24
2020/12/06 11:10:56;;;;;;;14.10;11.23;;;5.30;99.90;;;;;;4932482;29;20222;-24
2020/12/06 11:13:28;;;;;;;13.35;10.80;;;5.20;99.90;;;;;;4933458;29;20213;-24
2020/12/06 11:15:58;;;;;;;16.27;11.27;;;5.20;99.90;;;;;;4932643;29;20285;-24
2020/12/06 11:18:29;;;;;;;16.50;11.52;;;5.20;99.90;;;;;;4932905;29;20218;-24
2020/12/06 11:20:59;;;;;;;14.25;11.80;;;5.20;99.90;;;;;;4933295;29;20238;-24
2020/12/06 11:23:29;;;;;;;15.00;12.32;;;5.20;99.90;;;;;;4933149;29;20198;-25
2020/12/06 11:26:00;;;;;;;15.02;11.63;;;5.20;99.90;;;;;;4933149;29;20190;-24
2020/12/06 11:28:32;;;;;;;15.70;11.10;;;5.10;99.90;;;;;;4932871;29;20218;-24
2020/12/06 11:31:02;;;;;;;15.05;11.55;;;5.10;99.90;;;;;;4932623;29;20748;-24
2020/12/06 11:33:32;;;;;;;13.93;10.77;;;5.10;99.90;;;;;;4932882;29;20670;-24
2020/12/06 11:36:02;;;;;;;13.88;11.35;;;5.00;99.90;;;;;;4933739;29;20206;-24
2020/12/06 11:38:33;;;;;;;15.90;12.05;;;5.00;99.90;;;;;;4932111;29;20257;-24
2020/12/06 11:41:04;;;;;;;17.23;11.70;;;5.00;99.90;;;;;;4932980;29;20215;-24
2020/12/06 11:43:36;;;;;;;17.00;12.40;;;5.10;99.90;;;;;;4932468;29;20294;-25
2020/12/06 11:46:06;;;;;;;16.30;12.50;;;5.10;99.90;;;;;;4932581;29;20205;-24
2020/12/06 11:48:36;;;;;;;13.27;11.60;;;5.20;99.90;;;;;;4931762;29;20225;-25
2020/12/06 11:51:06;;;;;;;15.48;11.88;;;5.10;99.90;;;;;;4933089;29;20222;-25
2020/12/06 11:53:36;;;;;;;16.83;11.65;;;5.20;99.90;;;;;;4932529;29;20194;-27
2020/12/06 11:56:07;;;;;;;15.43;12.27;;;5.20;99.90;;;;;;4932464;29;20190;-25
2020/12/06 11:58:38;;;;;;;16.05;11.32;;;5.20;99.90;;;;;;4932812;29;20210;-25
2020/12/06 12:01:08;;;;;;;13.68;11.88;;;5.10;99.90;;;;;;4932480;29;20193;-25
2020/12/06 12:03:38;;;;;;;13.35;11.38;;;5.00;99.90;;;;;;4932231;29;20209;-25
2020/12/06 12:06:08;;;;;;;17.20;12.60;;;5.00;99.90;;;;;;4932741;29;20582;-25
2020/12/06 12:08:39;;;;;;;16.83;12.15;;;4.90;99.90;;;;;;4930962;29;20202;-25
2020/12/06 12:11:11;;;;;;;14.98;11.95;;;4.90;99.90;;;;;;4932138;29;20222;-25
2020/12/06 12:13:43;;;;;;;17.25;12.52;;;4.90;99.90;;;;;;4932020;29;20276;-25
2020/12/06 12:16:13;;;;;;;14.93;11.40;;;4.90;99.90;;;;;;4932283;29;20201;-25
2020/12/06 12:18:44;;;;;;;16.58;11.95;;;4.90;99.90;;;;;;4932660;29;20297;-25
2020/12/06 12:21:14;;;;;;;14.93;12.13;;;4.80;99.90;;;;;;4931919;29;20202;-25
2020/12/06 12:23:44;;;;;;;15.45;12.43;;;4.80;99.90;;;;;;4932409;29;20268;-25
2020/12/06 12:26:14;;;;;;;18.38;12.45;;;4.80;99.90;;;;;;4931868;29;20209;-24
2020/12/06 12:28:46;;;;;;;17.05;12.73;;;4.80;99.90;;;;;;4932175;29;20206;-25
2020/12/06 12:31:16;;;;;;;16.85;11.05;;;4.90;99.90;;;;;;4932228;29;20210;-25
2020/12/06 12:33:46;;;;;;;17.33;12.25;;;4.80;99.90;;;;;;4931644;29;20202;-25
2020/12/06 12:36:16;;;;;;;14.95;11.52;;;4.80;99.90;;;;;;4932609;29;20194;-25
2020/12/06 12:38:46;;;;;;;19.92;12.20;;;4.80;99.90;;;;;;4932210;29;20205;-25
2020/12/06 12:41:17;;;;;;;15.35;11.10;;;4.80;99.90;;;;;;4932148;29;20245;-25
2020/12/06 12:43:48;;;;;;;17.00;12.80;;;4.90;99.90;;;;;;4931622;29;20264;-25
2020/12/06 12:46:22;;;;;;;19.27;13.75;;;4.80;99.90;;;;;;4931164;29;20202;-25
2020/12/06 12:48:52;;;;;;;15.52;12.07;;;4.90;99.90;;;;;;4933027;29;20611;-25
2020/12/06 12:51:23;;;;;;;14.57;10.98;;;4.90;99.90;;;;;;4938496;29;20218;-24
2020/12/06 12:53:53;;;;;;;14.63;12.20;;;4.90;99.90;;;;;;4938439;29;20194;-24
2020/12/06 12:56:23;;;;;;;14.38;11.30;;;5.00;99.90;;;;;;4938237;29;20202;-24
2020/12/06 12:58:55;;;;;;;13.95;10.82;;;5.00;99.90;;;;;;4937962;29;20225;-24
2020/12/06 13:01:26;;;;;;;16.65;12.25;;;5.00;99.90;;;;;;4938107;29;20198;-25
2020/12/06 13:03:56;;;;;;;13.63;10.38;;;5.00;99.90;;;;;;4938088;29;20198;-24
2020/12/06 13:06:26;;;;;;;15.50;11.32;;;5.10;99.90;;;;;;4938869;29;20202;-24
2020/12/06 13:08:57;;;;;;;14.93;11.27;;;5.20;99.90;;;;;;4937652;29;20210;-24